Millersville, MD

10:42 AM EDT on July 30, 2015 (GMT -0400)
MarylandWx | | Change Station
CLOSE
Current Station
Personal Weather Station
Location: Millersville, MD
Elevation: 108 ft
Nearby Weather Stations

Elev 108 ft 39.11 °N, 76.63 °W | Updated 4 seconds ago

Partly Cloudy
Partly Cloudy
85.3 °F
Feels Like 96 °F
N
2.0
Wind Variable Wind from West
Gusts 7.0 mph

Today
High -- | Low -- °F
--% Chance of Precip.
Yesterday
High -- | Low -- °F
Precip. -- in
6:04 AM 8:20 PM
Waxing Gibbous, 99% visible
Pressure 29.90 in
Visibility 10.0 miles
Clouds Few 2300 ft
Scattered Clouds 7000 ft
Mostly Cloudy 15000 ft
Mostly Cloudy 25000 ft
Heat Index 96 °F
Dew Point 77 °F
Humidity 76%
Rainfall 0.00 in
Snow Depth Not available.
UV 3 out of 12
Pollen 5.90 out of 12
Air Quality Not available.
Flu Activity Not available.
METAR KBWI 301354Z 22006KT 10SM FEW023 SCT070 BKN150 BKN250 29/23 A2990 RMK AO2 SLP124 T02890228

More Conditions Fewer Conditions

Pressure 29.90 in
Visibility 10.0 miles
Clouds Few 2300 ft
Scattered Clouds 7000 ft
Mostly Cloudy 15000 ft
Mostly Cloudy 25000 ft
Heat Index 96 °F
Dew Point 77 °F
Humidity 76%
Rainfall 0.00 in
Snow Depth Not available.
UV 3 out of 12
Pollen 5.90 out of 12
Air Quality Not available.
Flu Activity Not available.
METAR KBWI 301354Z 22006KT 10SM FEW023 SCT070 BKN150 BKN250 29/23 A2990 RMK AO2 SLP124 T02890228

More Conditions Fewer Conditions

10-Day Weather Forecast

×

Almanac

Astronomy

Jul. 30, 2015 Rise Set
Actual Time
Civil Twilight
Nautical Twilight
Astronomical Twilight
Moon
Length of Visible Light
Length of Day
Tomorrow will be .
, % of the Moon is Illuminated

Today's Extremes

State Highs State Lows

Community

WunderPhotos

Upload Photos

1,842,399 photos uploaded!

WunderBlogs® & News

Nearby

Air Quality

  Air Quality AQ Index Pollutant
Not available.

Snow Depth

Station Depth Elevation

Earthquake Activity

City Distance Mag. Time & Date
Minimum magnitude displayed is 2.5.

Coastal Water Temperatures

Place Temperature

Stations

Nearby Weather Stations

Station Location Temp. Windchill Dew Point Humidity Wind Precip. Elev Updated Type